Flight Track Log - Related Links

Times and Time Zones

All times are in EDT time to prevent confusion due to time zone crossing. See the JA-807A flight status page for this flight to view local times or setup timezone preferences in your user account.

Time Position Orientation Groundspeed Altitude Reporting Facility
EDT Latitude Longitude Course Direction KTS MPH feet Rate Location/Type
Tue 11:30:32 PM 35.5152 139.6039 255° West  Level Estimated
Tue 11:31:32 PM 35.4909 139.4893 255° West  Level Estimated
Tue 11:32:32 PM 35.4665 139.3748 255° West  Level Estimated
Tue 11:33:32 PM 35.4420 139.2604 255° West  Level Estimated
Tue 11:34:32 PM 35.4173 139.1460 255° West  Level Estimated
Tue 11:35:32 PM 35.3926 139.0317 255° West  Level Estimated
Tue 11:36:32 PM 35.3678 138.9175 255° West  Level Estimated
Tue 11:37:32 PM 35.3428 138.8033 255° West  Level Estimated
Tue 11:38:32 PM 35.3178 138.6893 255° West  Level Estimated
Tue 11:39:32 PM 35.2926 138.5752 255° West  Level Estimated
Tue 11:40:32 PM 35.2673 138.4613 255° West  Level Estimated
Tue 11:41:32 PM 35.2420 138.3474 255° West  Level Estimated
Tue 11:42:32 PM 35.2165 138.2336 255° West  Level Estimated
Tue 11:43:32 PM 35.1909 138.1199 255° West  Level Estimated
Tue 11:44:32 PM 35.1652 138.0063 255° West  Level Estimated
Tue 11:45:32 PM 35.1394 137.8927 254° West  Level Estimated
Tue 11:46:32 PM 35.1135 137.7792 254° West  Level Estimated
Tue 11:47:32 PM 35.0874 137.6657 254° West  Level Estimated
Tue 11:48:32 PM 35.0613 137.5524 254° West  Level Estimated
Tue 11:49:32 PM 35.0351 137.4391 254° West  Level Estimated
Tue 11:50:32 PM 35.0088 137.3259 254° West  Level Estimated
Tue 11:51:32 PM 34.9823 137.2127 254° West  Level Estimated
Tue 11:52:32 PM 34.9558 137.0997 254° West  Level Estimated
Tue 11:53:32 PM 34.9291 136.9867 254° West  Level Estimated
Tue 11:54:32 PM 34.9024 136.8737 254° West  Level Estimated
Tue 11:55:32 PM 34.8755 136.7609 254° West  Level Estimated
Tue 11:56:32 PM 34.8486 136.6481 254° West  Level Estimated
Tue 11:57:32 PM 34.8215 136.5354 254° West  Level Estimated
Tue 11:58:32 PM 34.7944 136.4228 254° West  Level Estimated
Tue 11:59:32 PM 34.7671 136.3102 254° West  Level Estimated
Wed 12:00:32 AM 34.7397 136.1978 253° West  Level Estimated
Wed 12:01:32 AM 34.7122 136.0853 253° West  Level Estimated
Wed 12:02:32 AM 34.6847 135.9730 253° West  Level Estimated
Wed 12:03:32 AM 34.6570 135.8607 253° West  Level Estimated
Wed 12:04:32 AM 34.6292 135.7486 253° West  Level Estimated
Wed 12:05:32 AM 34.6013 135.6365 253° West  Level Estimated
Wed 12:06:32 AM 34.5733 135.5244 253° West  Level Estimated
Wed 12:07:32 AM 34.5452 135.4125 253° West  Level Estimated
Wed 12:08:32 AM 34.5170 135.3006 253° West  Level Estimated
Wed 12:09:32 AM 34.4887 135.1888 253° West  Level Estimated
Wed 12:10:32 AM 34.4603 135.0771 253° West  Level Estimated
Wed 12:11:32 AM 34.4318 134.9654 253° West  Level Estimated
Wed 12:12:32 AM 34.4032 134.8539 253° West  Level Estimated
Wed 12:13:32 AM 34.3745 134.7424 253° West  Level Estimated
Wed 12:14:32 AM 34.3457 134.6309 253° West  Level Estimated
Wed 12:15:32 AM 34.3168 134.5196 253° West  Level Estimated
Wed 12:16:32 AM 34.2878 134.4083 252° West  Level Estimated
Wed 12:17:32 AM 34.2587 134.2971 252° West  Level Estimated
Wed 12:18:32 AM 34.2295 134.1860 252° West  Level Estimated
Wed 12:19:32 AM 34.2002 134.0750 252° West  Level Estimated
Wed 12:20:32 AM 34.1708 133.9640 252° West  Level Estimated
Wed 12:21:32 AM 34.1413 133.8531 252° West  Level Estimated
Wed 12:22:32 AM 34.1117 133.7423 252° West  Level Estimated
Wed 12:23:32 AM 34.0820 133.6316 252° West  Level Estimated
Wed 12:24:32 AM 34.0522 133.5210 252° West  Level Estimated
Wed 12:25:32 AM 34.0223 133.4104 252° West  Level Estimated
Wed 12:26:32 AM 33.9923 133.2999 252° West  Level Estimated
Wed 12:27:32 AM 33.9622 133.1895 252° West  Level Estimated
Wed 12:28:32 AM 33.9320 133.0791 252° West  Level Estimated
Wed 12:29:32 AM 33.9017 132.9689 252° West  Level Estimated
Wed 12:30:32 AM 33.8713 132.8587 252° West  Level Estimated
Wed 12:31:32 AM 33.8408 132.7486 252° West  Level Estimated
Wed 12:32:32 AM 33.8102 132.6386 71° East  Level Estimated
Wed 12:33:32 AM 33.8408 132.7486 252° West  Level Estimated
Wed 12:34:32 AM 33.8102 132.6386 71° East  Level Estimated
Wed 12:35:32 AM 33.8408 132.7486 252° West  Level Estimated
Wed 12:36:32 AM 33.8102 132.6386 71° East  Level Estimated
Wed 12:37:32 AM 33.8408 132.7486 252° West  Level Estimated
Wed 12:38:32 AM 33.8102 132.6386 71° East  Level Estimated
Wed 12:39:32 AM 33.8408 132.7486 252° West  Level Estimated
Wed 12:40:32 AM 33.8102 132.6386 71° East  Level Estimated
Wed 12:41:32 AM 33.8408 132.7486 252° West  Level Estimated
Wed 12:42:32 AM 33.8102 132.6386 71° East  Level Estimated
Wed 12:43:32 AM 33.8408 132.7486 252° West  Level Estimated
Wed 12:44:32 AM 33.8102 132.6386 71° East  Level Estimated
Wed 12:45:32 AM 33.8408 132.7486 252° West  Level Estimated
Wed 12:46:32 AM 33.8102 132.6386 71° East  Level Estimated
Wed 12:47:32 AM 33.8408 132.7486 71° East  Level Estimated

Login

Don't have an account? Register now (free) for customized features, flight alerts, and more!